KLM43Y EHAM-EIDW
Flight info
| Callsign | KLM43Y |
|---|---|
| Flight time | 1h 16m |
| Altitude | 36000 |
| Route | BERGI L60 PENIL UL28 LELDO M145 BAGSO BAGSO4L |
| Aircraft | A21N/M-SDE2E3FGHIRWXY/LB1 |
Departure
| Time | 2026-04-19 23:16 |
|---|---|
| Airport | Amsterdam Airport Schiphol (EHAM) |
Arrival
| Time | 2026-04-20 00:33 |
|---|---|
| Airport | Dublin Airport (EIDW) |
| Time | Latitude | Longitude | Altitude | Speed | Heading |
|---|---|---|---|---|---|
| 2026-04-19 22:43 | 52.30343 | 4.76223 | -2 ft | 0 kts | 58° |
| 2026-04-19 23:01 | 52.30341 | 4.76220 | -3 ft | 1 kts | 58° |
| 2026-04-19 23:01 | 52.30337 | 4.76210 | -2 ft | 1 kts | 58° |
| 2026-04-19 23:02 | 52.30333 | 4.76199 | -2 ft | 1 kts | 58° |
| 2026-04-19 23:02 | 52.30329 | 4.76188 | -3 ft | 1 kts | 60° |
| 2026-04-19 23:02 | 52.30325 | 4.76177 | -3 ft | 1 kts | 76° |
| 2026-04-19 23:02 | 52.30324 | 4.76165 | -3 ft | 1 kts | 90° |
| 2026-04-19 23:03 | 52.30324 | 4.76152 | -3 ft | 1 kts | 105° |
| 2026-04-19 23:03 | 52.30326 | 4.76140 | -2 ft | 1 kts | 121° |
| 2026-04-19 23:03 | 52.30330 | 4.76129 | -2 ft | 1 kts | 136° |
| 2026-04-19 23:03 | 52.30332 | 4.76126 | -2 ft | 0 kts | 140° |
| 2026-04-19 23:05 | 52.30331 | 4.76128 | -2 ft | 2 kts | 140° |
| 2026-04-19 23:05 | 52.30302 | 4.76166 | -2 ft | 10 kts | 141° |
| 2026-04-19 23:05 | 52.30217 | 4.76273 | -2 ft | 17 kts | 154° |
| 2026-04-19 23:06 | 52.30164 | 4.76194 | -1 ft | 13 kts | 246° |
| 2026-04-19 23:06 | 52.30116 | 4.76041 | -4 ft | 18 kts | 240° |
| 2026-04-19 23:06 | 52.30044 | 4.75865 | -4 ft | 20 kts | 236° |
| 2026-04-19 23:06 | 52.29964 | 4.75664 | -3 ft | 22 kts | 237° |
| 2026-04-19 23:07 | 52.29887 | 4.75451 | -1 ft | 22 kts | 239° |
| 2026-04-19 23:07 | 52.29845 | 4.75217 | 1 ft | 22 kts | 289° |
| 2026-04-19 23:07 | 52.29948 | 4.75002 | -2 ft | 25 kts | 317° |
| 2026-04-19 23:07 | 52.30050 | 4.74803 | 5 ft | 22 kts | 310° |
| 2026-04-19 23:08 | 52.30134 | 4.74647 | 8 ft | 4 kts | 312° |
| 2026-04-19 23:08 | 52.30178 | 4.74570 | 8 ft | 7 kts | 315° |
| 2026-04-19 23:08 | 52.30216 | 4.74501 | 8 ft | 10 kts | 311° |
| 2026-04-19 23:08 | 52.30281 | 4.74378 | 6 ft | 14 kts | 309° |
| 2026-04-19 23:09 | 52.30359 | 4.74231 | 2 ft | 19 kts | 320° |
| 2026-04-19 23:09 | 52.30486 | 4.74197 | -1 ft | 21 kts | 5° |
| 2026-04-19 23:09 | 52.30641 | 4.74206 | -4 ft | 24 kts | 2° |
| 2026-04-19 23:09 | 52.30811 | 4.74221 | -6 ft | 25 kts | 4° |
| 2026-04-19 23:10 | 52.30993 | 4.74245 | -6 ft | 26 kts | 1° |
| 2026-04-19 23:10 | 52.31177 | 4.74258 | -6 ft | 27 kts | 4° |
| 2026-04-19 23:10 | 52.31360 | 4.74278 | 0 ft | 26 kts | 2° |
| 2026-04-19 23:10 | 52.31542 | 4.74296 | -1 ft | 27 kts | 7° |
| 2026-04-19 23:11 | 52.31728 | 4.74309 | -2 ft | 28 kts | 3° |
| 2026-04-19 23:11 | 52.31929 | 4.74336 | -6 ft | 30 kts | 5° |
| 2026-04-19 23:11 | 52.32038 | 4.74158 | -6 ft | 26 kts | 273° |
| 2026-04-19 23:11 | 52.32046 | 4.73863 | -2 ft | 25 kts | 272° |
| 2026-04-19 23:12 | 52.32053 | 4.73576 | 1 ft | 26 kts | 273° |
| 2026-04-19 23:12 | 52.32116 | 4.73315 | 0 ft | 26 kts | 319° |
| 2026-04-19 23:12 | 52.32260 | 4.73117 | -3 ft | 28 kts | 320° |
| 2026-04-19 23:12 | 52.32413 | 4.72905 | -4 ft | 29 kts | 319° |
| 2026-04-19 23:13 | 52.32566 | 4.72685 | -4 ft | 30 kts | 318° |
| 2026-04-19 23:13 | 52.32712 | 4.72463 | -5 ft | 29 kts | 315° |
| 2026-04-19 23:13 | 52.32846 | 4.72214 | -2 ft | 28 kts | 311° |
| 2026-04-19 23:13 | 52.32980 | 4.71967 | -3 ft | 29 kts | 310° |
| 2026-04-19 23:14 | 52.33112 | 4.71713 | -2 ft | 28 kts | 310° |
| 2026-04-19 23:14 | 52.33106 | 4.71455 | -1 ft | 25 kts | 231° |
| 2026-04-19 23:14 | 52.32977 | 4.71251 | -4 ft | 25 kts | 222° |
| 2026-04-19 23:14 | 52.32867 | 4.71034 | -4 ft | 25 kts | 262° |
| 2026-04-19 23:15 | 52.32902 | 4.70892 | -4 ft | 9 kts | 338° |
| 2026-04-19 23:15 | 52.32979 | 4.70896 | -6 ft | 13 kts | 360° |
| 2026-04-19 23:15 | 52.33148 | 4.70914 | -8 ft | 52 kts | 2° |
| 2026-04-19 23:15 | 52.33785 | 4.70964 | -1 ft | 128 kts | 3° |
| 2026-04-19 23:16 | 52.34825 | 4.71059 | 73 ft | 176 kts | 4° |
| 2026-04-19 23:16 | 52.36067 | 4.71281 | 824 ft | 185 kts | 6° |
| 2026-04-19 23:16 | 52.37410 | 4.71479 | 1608 ft | 203 kts | 1° |
| 2026-04-19 23:16 | 52.38891 | 4.71559 | 2452 ft | 222 kts | 0° |
| 2026-04-19 23:17 | 52.40500 | 4.71640 | 3307 ft | 240 kts | 1° |
| 2026-04-19 23:17 | 52.42190 | 4.71645 | 4377 ft | 245 kts | 351° |
| 2026-04-19 23:17 | 52.43786 | 4.70657 | 5502 ft | 250 kts | 326° |
| 2026-04-19 23:17 | 52.45084 | 4.68723 | 6564 ft | 256 kts | 315° |
| 2026-04-19 23:18 | 52.46352 | 4.66618 | 7622 ft | 261 kts | 314° |
| 2026-04-19 23:18 | 52.47644 | 4.64478 | 8680 ft | 267 kts | 314° |
| 2026-04-19 23:18 | 52.48968 | 4.62298 | 9733 ft | 272 kts | 314° |
| 2026-04-19 23:18 | 52.50325 | 4.60073 | 10685 ft | 281 kts | 313° |
| 2026-04-19 23:19 | 52.51835 | 4.57826 | 11186 ft | 306 kts | 321° |
| 2026-04-19 23:19 | 52.53692 | 4.55849 | 11674 ft | 328 kts | 329° |
| 2026-04-19 23:19 | 52.55707 | 4.54003 | 12568 ft | 335 kts | 328° |
| 2026-04-19 23:19 | 52.57753 | 4.52100 | 13569 ft | 340 kts | 328° |
| 2026-04-19 23:20 | 52.59826 | 4.50153 | 14503 ft | 346 kts | 327° |
| 2026-04-19 23:20 | 52.61928 | 4.48172 | 15435 ft | 350 kts | 327° |
| 2026-04-19 23:20 | 52.64058 | 4.46161 | 16360 ft | 355 kts | 327° |
| 2026-04-19 23:20 | 52.66182 | 4.44155 | 17248 ft | 360 kts | 327° |
| 2026-04-19 23:21 | 52.68370 | 4.42086 | 18170 ft | 365 kts | 327° |
| 2026-04-19 23:21 | 52.70586 | 4.39988 | 18996 ft | 369 kts | 327° |
| 2026-04-19 23:21 | 52.72787 | 4.37771 | 19755 ft | 371 kts | 319° |
| 2026-04-19 23:21 | 52.74619 | 4.34777 | 20505 ft | 370 kts | 303° |
| 2026-04-19 23:22 | 52.75871 | 4.31086 | 21264 ft | 369 kts | 288° |
| 2026-04-19 23:22 | 52.76692 | 4.27058 | 22008 ft | 372 kts | 286° |
| 2026-04-19 23:22 | 52.77509 | 4.22974 | 22734 ft | 376 kts | 286° |
| 2026-04-19 23:22 | 52.78336 | 4.18852 | 23443 ft | 381 kts | 286° |
| 2026-04-19 23:23 | 52.79174 | 4.14674 | 24078 ft | 385 kts | 286° |
| 2026-04-19 23:23 | 52.80019 | 4.10461 | 24673 ft | 387 kts | 286° |
| 2026-04-19 23:23 | 52.80869 | 4.06219 | 25243 ft | 391 kts | 286° |
| 2026-04-19 23:23 | 52.81724 | 4.01940 | 25783 ft | 393 kts | 286° |
| 2026-04-19 23:24 | 52.82573 | 3.97683 | 26243 ft | 396 kts | 286° |
| 2026-04-19 23:24 | 52.83437 | 3.93339 | 26710 ft | 399 kts | 286° |
| 2026-04-19 23:24 | 52.84306 | 3.88964 | 27169 ft | 402 kts | 286° |
| 2026-04-19 23:24 | 52.85178 | 3.84558 | 27600 ft | 404 kts | 286° |
| 2026-04-19 23:25 | 52.86056 | 3.80117 | 28039 ft | 407 kts | 286° |
| 2026-04-19 23:25 | 52.86937 | 3.75651 | 28469 ft | 409 kts | 286° |
| 2026-04-19 23:25 | 52.87821 | 3.71154 | 28865 ft | 412 kts | 286° |
| 2026-04-19 23:25 | 52.88710 | 3.66626 | 29242 ft | 415 kts | 286° |
| 2026-04-19 23:26 | 52.89603 | 3.62067 | 29634 ft | 417 kts | 286° |
| 2026-04-19 23:26 | 52.90497 | 3.57488 | 30017 ft | 419 kts | 286° |
| 2026-04-19 23:26 | 52.91396 | 3.52877 | 30378 ft | 422 kts | 286° |
| 2026-04-19 23:26 | 52.92301 | 3.48221 | 30676 ft | 425 kts | 286° |
| 2026-04-19 23:27 | 52.93206 | 3.43554 | 30975 ft | 427 kts | 286° |
| 2026-04-19 23:27 | 52.93809 | 3.40438 | 31179 ft | 429 kts | 286° |
| 2026-04-19 23:27 | 52.94720 | 3.35721 | 31499 ft | 431 kts | 286° |
| 2026-04-19 23:27 | 52.95632 | 3.30987 | 31874 ft | 431 kts | 287° |
| 2026-04-19 23:28 | 52.96543 | 3.26249 | 32260 ft | 431 kts | 287° |
| 2026-04-19 23:28 | 52.97450 | 3.21519 | 32653 ft | 430 kts | 287° |
| 2026-04-19 23:28 | 52.98649 | 3.15246 | 33149 ft | 430 kts | 287° |
| 2026-04-19 23:28 | 52.99260 | 3.12041 | 33398 ft | 430 kts | 287° |
| 2026-04-19 23:29 | 53.00160 | 3.07307 | 33762 ft | 430 kts | 287° |
| 2026-04-19 23:29 | 53.01059 | 3.02571 | 34111 ft | 430 kts | 287° |
| 2026-04-19 23:29 | 53.01956 | 2.97834 | 34438 ft | 430 kts | 287° |
| 2026-04-19 23:29 | 53.02850 | 2.93098 | 34711 ft | 430 kts | 287° |
| 2026-04-19 23:30 | 53.03731 | 2.88424 | 34987 ft | 430 kts | 287° |
| 2026-04-19 23:30 | 53.04624 | 2.83672 | 35245 ft | 430 kts | 287° |
| 2026-04-19 23:30 | 53.05514 | 2.78925 | 35501 ft | 430 kts | 287° |
| 2026-04-19 23:30 | 53.06401 | 2.74178 | 35750 ft | 430 kts | 287° |
| 2026-04-19 23:31 | 53.07289 | 2.69423 | 36002 ft | 430 kts | 287° |
| 2026-04-19 23:31 | 53.08173 | 2.64671 | 36214 ft | 431 kts | 287° |
| 2026-04-19 23:31 | 53.09958 | 2.55035 | 36306 ft | 441 kts | 287° |
| 2026-04-19 23:32 | 53.11302 | 2.45057 | 36308 ft | 450 kts | 278° |
| 2026-04-19 23:32 | 53.12141 | 2.34630 | 36308 ft | 456 kts | 278° |
| 2026-04-19 23:33 | 53.12983 | 2.24407 | 36306 ft | 433 kts | 278° |
| 2026-04-19 23:33 | 53.13590 | 2.16918 | 36312 ft | 421 kts | 278° |
| 2026-04-19 23:34 | 53.14391 | 2.06932 | 36311 ft | 430 kts | 278° |
| 2026-04-19 23:34 | 53.15170 | 1.97082 | 36314 ft | 428 kts | 278° |
| 2026-04-19 23:35 | 53.15938 | 1.87253 | 36318 ft | 428 kts | 278° |
| 2026-04-19 23:35 | 53.16700 | 1.77408 | 36315 ft | 428 kts | 278° |
| 2026-04-19 23:36 | 53.17452 | 1.67577 | 36318 ft | 427 kts | 278° |
| 2026-04-19 23:36 | 53.18196 | 1.57754 | 36316 ft | 427 kts | 278° |
| 2026-04-19 23:37 | 53.18783 | 1.49906 | 36313 ft | 426 kts | 278° |
| 2026-04-19 23:37 | 53.19511 | 1.40088 | 36311 ft | 426 kts | 278° |
| 2026-04-19 23:38 | 53.20230 | 1.30282 | 36314 ft | 426 kts | 278° |
| 2026-04-19 23:38 | 53.20940 | 1.20482 | 36317 ft | 426 kts | 278° |
| 2026-04-19 23:39 | 53.21642 | 1.10678 | 36318 ft | 425 kts | 278° |
| 2026-04-19 23:39 | 53.22337 | 1.00862 | 36318 ft | 426 kts | 278° |
| 2026-04-19 23:40 | 53.22997 | 0.91412 | 36325 ft | 426 kts | 278° |
| 2026-04-19 23:40 | 53.23693 | 0.81340 | 36326 ft | 426 kts | 278° |
| 2026-04-19 23:41 | 53.24363 | 0.71521 | 36326 ft | 426 kts | 278° |
| 2026-04-19 23:41 | 53.25025 | 0.61700 | 36329 ft | 426 kts | 278° |
| 2026-04-19 23:42 | 53.25680 | 0.51863 | 36335 ft | 426 kts | 278° |
| 2026-04-19 23:42 | 53.26326 | 0.42028 | 36333 ft | 426 kts | 278° |
| 2026-04-19 23:43 | 53.26964 | 0.32191 | 36329 ft | 426 kts | 278° |
| 2026-04-19 23:43 | 53.27595 | 0.22346 | 36333 ft | 426 kts | 278° |
| 2026-04-19 23:44 | 53.28216 | 0.12511 | 36333 ft | 426 kts | 278° |
| 2026-04-19 23:44 | 53.28833 | 0.02673 | 36333 ft | 425 kts | 278° |
| 2026-04-19 23:45 | 53.29759 | -0.07031 | 36321 ft | 421 kts | 283° |
| 2026-04-19 23:45 | 53.30829 | -0.16586 | 36322 ft | 421 kts | 283° |
| 2026-04-19 23:46 | 53.31846 | -0.26226 | 36323 ft | 421 kts | 282° |
| 2026-04-19 23:46 | 53.32828 | -0.35838 | 36321 ft | 421 kts | 282° |
| 2026-04-19 23:47 | 53.33798 | -0.45446 | 36322 ft | 420 kts | 282° |
| 2026-04-19 23:47 | 53.34765 | -0.55101 | 36321 ft | 420 kts | 282° |
| 2026-04-19 23:48 | 53.35723 | -0.64744 | 36320 ft | 420 kts | 282° |
| 2026-04-19 23:48 | 53.36675 | -0.74398 | 36327 ft | 420 kts | 282° |
| 2026-04-19 23:49 | 53.37618 | -0.84038 | 36326 ft | 419 kts | 282° |
| 2026-04-19 23:49 | 53.38553 | -0.93678 | 36331 ft | 419 kts | 282° |
| 2026-04-19 23:50 | 53.39480 | -1.03330 | 36330 ft | 419 kts | 282° |
| 2026-04-19 23:50 | 53.40398 | -1.12975 | 36336 ft | 419 kts | 282° |
| 2026-04-19 23:51 | 53.41307 | -1.22604 | 36334 ft | 418 kts | 282° |
| 2026-04-19 23:51 | 53.42200 | -1.32178 | 36336 ft | 418 kts | 282° |
| 2026-04-19 23:52 | 53.43092 | -1.41812 | 36342 ft | 418 kts | 282° |
| 2026-04-19 23:52 | 53.43976 | -1.51439 | 36340 ft | 417 kts | 282° |
| 2026-04-19 23:53 | 53.44852 | -1.61066 | 36342 ft | 417 kts | 282° |
| 2026-04-19 23:53 | 53.45718 | -1.70679 | 36341 ft | 416 kts | 282° |
| 2026-04-19 23:54 | 53.46576 | -1.80290 | 36341 ft | 416 kts | 282° |
| 2026-04-19 23:54 | 53.47424 | -1.89887 | 36345 ft | 416 kts | 282° |
| 2026-04-19 23:55 | 53.48265 | -1.99485 | 36346 ft | 415 kts | 281° |
| 2026-04-19 23:55 | 53.49097 | -2.09070 | 36349 ft | 415 kts | 282° |
| 2026-04-19 23:56 | 53.49915 | -2.18594 | 36347 ft | 414 kts | 281° |
| 2026-04-19 23:56 | 53.50726 | -2.28150 | 36345 ft | 413 kts | 282° |
| 2026-04-19 23:57 | 53.51531 | -2.37703 | 36346 ft | 412 kts | 281° |
| 2026-04-19 23:57 | 53.52328 | -2.47246 | 36339 ft | 412 kts | 281° |
| 2026-04-19 23:58 | 53.53114 | -2.56771 | 36341 ft | 411 kts | 281° |
| 2026-04-19 23:58 | 53.53892 | -2.66288 | 36338 ft | 411 kts | 281° |
| 2026-04-19 23:59 | 53.54663 | -2.75810 | 36331 ft | 410 kts | 281° |
| 2026-04-19 23:59 | 53.55424 | -2.85314 | 36333 ft | 410 kts | 281° |
| 2026-04-20 00:00 | 53.56178 | -2.94829 | 36335 ft | 410 kts | 281° |
| 2026-04-20 00:00 | 53.56925 | -3.04346 | 36342 ft | 410 kts | 281° |
| 2026-04-20 00:01 | 53.57665 | -3.13874 | 36146 ft | 410 kts | 281° |
| 2026-04-20 00:01 | 53.58391 | -3.23346 | 35651 ft | 406 kts | 281° |
| 2026-04-20 00:02 | 53.58744 | -3.27982 | 35414 ft | 404 kts | 282° |
| 2026-04-20 00:02 | 53.59104 | -3.32729 | 35169 ft | 403 kts | 282° |
| 2026-04-20 00:02 | 53.59451 | -3.37342 | 34933 ft | 402 kts | 282° |
| 2026-04-20 00:02 | 53.59801 | -3.42008 | 34556 ft | 402 kts | 282° |
| 2026-04-20 00:03 | 53.60151 | -3.46682 | 33834 ft | 403 kts | 282° |
| 2026-04-20 00:03 | 53.60502 | -3.51388 | 33022 ft | 404 kts | 281° |
| 2026-04-20 00:03 | 53.60846 | -3.56060 | 32323 ft | 401 kts | 281° |
| 2026-04-20 00:03 | 53.61188 | -3.60726 | 31630 ft | 399 kts | 281° |
| 2026-04-20 00:04 | 53.61651 | -3.65276 | 31145 ft | 390 kts | 287° |
| 2026-04-20 00:04 | 53.62401 | -3.69618 | 30624 ft | 382 kts | 292° |
| 2026-04-20 00:04 | 53.63371 | -3.73743 | 30056 ft | 376 kts | 295° |
| 2026-04-20 00:04 | 53.64350 | -3.77793 | 29521 ft | 370 kts | 294° |
| 2026-04-20 00:05 | 53.65303 | -3.81775 | 28994 ft | 364 kts | 294° |
| 2026-04-20 00:05 | 53.66244 | -3.85720 | 28151 ft | 365 kts | 294° |
| 2026-04-20 00:05 | 53.67204 | -3.89742 | 27148 ft | 372 kts | 294° |
| 2026-04-20 00:05 | 53.68176 | -3.93820 | 26065 ft | 380 kts | 295° |
| 2026-04-20 00:06 | 53.69175 | -3.98018 | 24923 ft | 390 kts | 294° |
| 2026-04-20 00:06 | 53.69842 | -4.00833 | 24404 ft | 390 kts | 294° |
| 2026-04-20 00:06 | 53.71014 | -4.06260 | 23524 ft | 387 kts | 289° |
| 2026-04-20 00:06 | 53.71609 | -4.10630 | 22791 ft | 386 kts | 283° |
| 2026-04-20 00:07 | 53.71914 | -4.15129 | 22039 ft | 386 kts | 278° |
| 2026-04-20 00:07 | 53.72070 | -4.19629 | 21319 ft | 383 kts | 278° |
| 2026-04-20 00:07 | 53.72239 | -4.24102 | 20599 ft | 380 kts | 278° |
| 2026-04-20 00:07 | 53.72410 | -4.28533 | 19906 ft | 377 kts | 278° |
| 2026-04-20 00:08 | 53.72578 | -4.32956 | 19221 ft | 375 kts | 278° |
| 2026-04-20 00:08 | 53.72740 | -4.37327 | 18554 ft | 372 kts | 278° |
| 2026-04-20 00:08 | 53.72900 | -4.41674 | 17773 ft | 370 kts | 278° |
| 2026-04-20 00:08 | 53.73058 | -4.46005 | 17017 ft | 368 kts | 277° |
| 2026-04-20 00:09 | 53.73212 | -4.50313 | 16271 ft | 367 kts | 277° |
| 2026-04-20 00:09 | 53.73365 | -4.54612 | 15563 ft | 365 kts | 277° |
| 2026-04-20 00:09 | 53.73515 | -4.58887 | 14866 ft | 364 kts | 276° |
| 2026-04-20 00:09 | 53.73663 | -4.63144 | 14199 ft | 363 kts | 276° |
| 2026-04-20 00:10 | 53.73809 | -4.67387 | 13500 ft | 360 kts | 276° |
| 2026-04-20 00:10 | 53.73952 | -4.71592 | 12879 ft | 357 kts | 276° |
| 2026-04-20 00:10 | 53.74091 | -4.75745 | 12332 ft | 351 kts | 275° |
| 2026-04-20 00:10 | 53.74225 | -4.79786 | 11804 ft | 347 kts | 275° |
| 2026-04-20 00:11 | 53.74360 | -4.83875 | 11265 ft | 343 kts | 275° |
| 2026-04-20 00:11 | 53.74491 | -4.87868 | 10824 ft | 336 kts | 275° |
| 2026-04-20 00:11 | 53.74615 | -4.91676 | 10674 ft | 322 kts | 275° |
| 2026-04-20 00:11 | 53.74733 | -4.95371 | 10533 ft | 308 kts | 275° |
| 2026-04-20 00:12 | 53.74845 | -4.98905 | 10422 ft | 295 kts | 275° |
| 2026-04-20 00:12 | 53.74952 | -5.02297 | 10233 ft | 285 kts | 275° |
| 2026-04-20 00:12 | 53.75057 | -5.05628 | 9799 ft | 283 kts | 275° |
| 2026-04-20 00:12 | 53.75160 | -5.08932 | 9468 ft | 278 kts | 274° |
| 2026-04-20 00:13 | 53.75236 | -5.12145 | 9365 ft | 276 kts | 270° |
| 2026-04-20 00:13 | 53.75003 | -5.15398 | 9329 ft | 280 kts | 258° |
| 2026-04-20 00:13 | 53.74421 | -5.18498 | 9273 ft | 273 kts | 252° |
| 2026-04-20 00:13 | 53.73807 | -5.21466 | 9174 ft | 262 kts | 253° |
| 2026-04-20 00:14 | 53.73226 | -5.24313 | 9041 ft | 252 kts | 253° |
| 2026-04-20 00:14 | 53.72663 | -5.27100 | 8710 ft | 250 kts | 253° |
| 2026-04-20 00:14 | 53.72105 | -5.29866 | 8427 ft | 246 kts | 253° |
| 2026-04-20 00:14 | 53.71558 | -5.32564 | 8361 ft | 244 kts | 253° |
| 2026-04-20 00:15 | 53.71005 | -5.35295 | 8354 ft | 246 kts | 253° |
| 2026-04-20 00:15 | 53.70451 | -5.38017 | 8344 ft | 245 kts | 253° |
| 2026-04-20 00:15 | 53.69897 | -5.40731 | 8350 ft | 245 kts | 252° |
| 2026-04-20 00:15 | 53.69342 | -5.43451 | 8358 ft | 245 kts | 252° |
| 2026-04-20 00:16 | 53.68794 | -5.46131 | 8360 ft | 245 kts | 252° |
| 2026-04-20 00:16 | 53.68256 | -5.48894 | 8350 ft | 244 kts | 258° |
| 2026-04-20 00:16 | 53.68036 | -5.51681 | 8357 ft | 243 kts | 271° |
| 2026-04-20 00:16 | 53.68113 | -5.54523 | 8350 ft | 242 kts | 275° |
| 2026-04-20 00:17 | 53.68200 | -5.57363 | 8350 ft | 242 kts | 274° |
| 2026-04-20 00:17 | 53.68278 | -5.60207 | 8352 ft | 243 kts | 274° |
| 2026-04-20 00:17 | 53.68352 | -5.63051 | 8350 ft | 242 kts | 274° |
| 2026-04-20 00:17 | 53.68156 | -5.65863 | 8352 ft | 245 kts | 251° |
| 2026-04-20 00:18 | 53.67614 | -5.67537 | 8351 ft | 247 kts | 232° |
| 2026-04-20 00:18 | 53.66474 | -5.69725 | 8349 ft | 248 kts | 229° |
| 2026-04-20 00:18 | 53.65319 | -5.71879 | 8338 ft | 247 kts | 225° |
| 2026-04-20 00:18 | 53.63854 | -5.73359 | 8353 ft | 250 kts | 195° |
| 2026-04-20 00:19 | 53.62128 | -5.73425 | 8351 ft | 252 kts | 165° |
| 2026-04-20 00:19 | 53.60603 | -5.72040 | 8350 ft | 252 kts | 134° |
| 2026-04-20 00:19 | 53.59505 | -5.69747 | 8347 ft | 252 kts | 123° |
| 2026-04-20 00:19 | 53.58541 | -5.67293 | 8350 ft | 251 kts | 122° |
| 2026-04-20 00:20 | 53.57559 | -5.64862 | 8348 ft | 251 kts | 128° |
| 2026-04-20 00:20 | 53.56302 | -5.62834 | 8348 ft | 252 kts | 144° |
| 2026-04-20 00:20 | 53.54811 | -5.61260 | 8348 ft | 252 kts | 148° |
| 2026-04-20 00:20 | 53.53310 | -5.59732 | 8350 ft | 252 kts | 148° |
| 2026-04-20 00:21 | 53.51838 | -5.58234 | 8354 ft | 253 kts | 148° |
| 2026-04-20 00:21 | 53.50335 | -5.56704 | 8353 ft | 252 kts | 148° |
| 2026-04-20 00:21 | 53.48758 | -5.55434 | 8349 ft | 253 kts | 162° |
| 2026-04-20 00:21 | 53.47042 | -5.54806 | 8354 ft | 252 kts | 172° |
| 2026-04-20 00:22 | 53.45304 | -5.54358 | 8346 ft | 252 kts | 171° |
| 2026-04-20 00:22 | 53.43571 | -5.53891 | 8348 ft | 252 kts | 171° |
| 2026-04-20 00:22 | 53.41840 | -5.53415 | 8349 ft | 252 kts | 171° |
| 2026-04-20 00:22 | 53.40102 | -5.53025 | 8344 ft | 252 kts | 179° |
| 2026-04-20 00:23 | 53.38358 | -5.53253 | 8342 ft | 252 kts | 193° |
| 2026-04-20 00:23 | 53.36654 | -5.53922 | 8344 ft | 251 kts | 194° |
| 2026-04-20 00:23 | 53.34951 | -5.54578 | 8344 ft | 251 kts | 194° |
| 2026-04-20 00:23 | 53.33265 | -5.55215 | 8346 ft | 251 kts | 193° |
| 2026-04-20 00:24 | 53.31558 | -5.55857 | 8344 ft | 252 kts | 195° |
| 2026-04-20 00:24 | 53.29917 | -5.56856 | 8342 ft | 251 kts | 208° |
| 2026-04-20 00:24 | 53.28451 | -5.58405 | 8336 ft | 249 kts | 216° |
| 2026-04-20 00:24 | 53.27021 | -5.60037 | 8330 ft | 249 kts | 215° |
| 2026-04-20 00:25 | 53.25614 | -5.61722 | 8330 ft | 248 kts | 226° |
| 2026-04-20 00:25 | 53.24708 | -5.64104 | 8171 ft | 244 kts | 255° |
| 2026-04-20 00:25 | 53.24623 | -5.66901 | 7744 ft | 244 kts | 285° |
| 2026-04-20 00:25 | 53.25403 | -5.69378 | 7353 ft | 243 kts | 313° |
| 2026-04-20 00:26 | 53.26590 | -5.71338 | 7152 ft | 236 kts | 319° |
| 2026-04-20 00:26 | 53.27783 | -5.73152 | 7138 ft | 235 kts | 319° |
| 2026-04-20 00:26 | 53.28991 | -5.75040 | 7139 ft | 238 kts | 317° |
| 2026-04-20 00:26 | 53.30171 | -5.76973 | 7146 ft | 237 kts | 316° |
| 2026-04-20 00:27 | 53.31328 | -5.78933 | 7144 ft | 237 kts | 315° |
| 2026-04-20 00:27 | 53.32477 | -5.80916 | 7140 ft | 237 kts | 315° |
| 2026-04-20 00:27 | 53.33603 | -5.82874 | 6986 ft | 236 kts | 315° |
| 2026-04-20 00:27 | 53.34753 | -5.84875 | 6611 ft | 240 kts | 315° |
| 2026-04-20 00:28 | 53.35914 | -5.86898 | 6242 ft | 241 kts | 315° |
| 2026-04-20 00:28 | 53.37078 | -5.88924 | 5897 ft | 241 kts | 315° |
| 2026-04-20 00:28 | 53.38238 | -5.90946 | 5578 ft | 240 kts | 316° |
| 2026-04-20 00:28 | 53.39337 | -5.92865 | 5273 ft | 240 kts | 315° |
| 2026-04-20 00:29 | 53.40235 | -5.95181 | 5092 ft | 235 kts | 292° |
| 2026-04-20 00:29 | 53.40531 | -5.97830 | 4963 ft | 229 kts | 277° |
| 2026-04-20 00:29 | 53.40663 | -6.00469 | 4671 ft | 226 kts | 276° |
| 2026-04-20 00:29 | 53.40796 | -6.03060 | 4383 ft | 217 kts | 277° |
| 2026-04-20 00:30 | 53.40938 | -6.05503 | 4211 ft | 204 kts | 278° |
| 2026-04-20 00:30 | 53.41082 | -6.07782 | 3944 ft | 187 kts | 278° |
| 2026-04-20 00:30 | 53.41217 | -6.09829 | 3675 ft | 171 kts | 277° |
| 2026-04-20 00:30 | 53.41269 | -6.11783 | 3262 ft | 167 kts | 272° |
| 2026-04-20 00:31 | 53.41302 | -6.13703 | 2951 ft | 160 kts | 275° |
| 2026-04-20 00:31 | 53.41382 | -6.15551 | 2615 ft | 161 kts | 277° |
| 2026-04-20 00:31 | 53.41491 | -6.17419 | 2071 ft | 164 kts | 278° |
| 2026-04-20 00:31 | 53.41672 | -6.19369 | 1358 ft | 172 kts | 279° |
| 2026-04-20 00:32 | 53.41788 | -6.21330 | 782 ft | 165 kts | 277° |
| 2026-04-20 00:32 | 53.41910 | -6.23174 | 440 ft | 150 kts | 274° |
| 2026-04-20 00:32 | 53.41997 | -6.24809 | 268 ft | 133 kts | 278° |
| 2026-04-20 00:32 | 53.42094 | -6.26281 | 224 ft | 115 kts | 275° |
| 2026-04-20 00:33 | 53.42143 | -6.27166 | 229 ft | 47 kts | 265° |
| 2026-04-20 00:33 | 53.42165 | -6.27616 | 237 ft | 38 kts | 277° |
| 2026-04-20 00:33 | 53.42253 | -6.27998 | 242 ft | 34 kts | 301° |
| 2026-04-20 00:33 | 53.42364 | -6.28088 | 245 ft | 16 kts | 57° |
| 2026-04-20 00:34 | 53.42358 | -6.27894 | 240 ft | 25 kts | 94° |
| 2026-04-20 00:34 | 53.42340 | -6.27529 | 233 ft | 34 kts | 96° |
| 2026-04-20 00:34 | 53.42314 | -6.27113 | 231 ft | 36 kts | 98° |
| 2026-04-20 00:34 | 53.42294 | -6.26709 | 231 ft | 27 kts | 98° |
| 2026-04-20 00:35 | 53.42274 | -6.26380 | 226 ft | 30 kts | 98° |
| 2026-04-20 00:35 | 53.42331 | -6.26050 | 220 ft | 33 kts | 49° |
| 2026-04-20 00:35 | 53.42497 | -6.25768 | 218 ft | 35 kts | 45° |
| 2026-04-20 00:35 | 53.42663 | -6.25478 | 221 ft | 34 kts | 44° |
| 2026-04-20 00:36 | 53.42808 | -6.25233 | 220 ft | 19 kts | 43° |
| 2026-04-20 00:36 | 53.42883 | -6.25050 | 220 ft | 21 kts | 81° |
| 2026-04-20 00:36 | 53.42860 | -6.24904 | 220 ft | 0 kts | 140° |
| 2026-04-20 00:36 | 53.42832 | -6.24854 | 223 ft | 9 kts | 136° |
| 2026-04-20 00:37 | 53.42828 | -6.24846 | 224 ft | 0 kts | 134° |